sensor_id;sensor_type;location;lat;lon;timestamp;temperature;humidity
31379;DHT22;61664;48.112;11.662;2023-04-03T00:01:01;7.00;84.90
31379;DHT22;61664;48.112;11.662;2023-04-03T00:03:29;6.90;84.80
31379;DHT22;61664;48.112;11.662;2023-04-03T00:05:56;7.00;84.90
31379;DHT22;61664;48.112;11.662;2023-04-03T00:08:23;7.00;84.80
31379;DHT22;61664;48.112;11.662;2023-04-03T00:10:50;7.00;84.60
31379;DHT22;61664;48.112;11.662;2023-04-03T00:13:18;6.90;84.50
31379;DHT22;61664;48.112;11.662;2023-04-03T00:15:45;6.90;84.50
31379;DHT22;61664;48.112;11.662;2023-04-03T00:18:12;6.90;84.70
31379;DHT22;61664;48.112;11.662;2023-04-03T00:20:39;6.90;84.80
31379;DHT22;61664;48.112;11.662;2023-04-03T00:23:06;6.90;84.70
31379;DHT22;61664;48.112;11.662;2023-04-03T00:25:33;6.90;84.60
31379;DHT22;61664;48.112;11.662;2023-04-03T00:28:00;6.90;84.50
31379;DHT22;61664;48.112;11.662;2023-04-03T00:30:28;6.90;84.30
31379;DHT22;61664;48.112;11.662;2023-04-03T00:32:55;6.90;84.30
31379;DHT22;61664;48.112;11.662;2023-04-03T00:35:22;6.90;84.40
31379;DHT22;61664;48.112;11.662;2023-04-03T00:37:52;6.90;84.30
31379;DHT22;61664;48.112;11.662;2023-04-03T00:40:22;6.90;84.30
31379;DHT22;61664;48.112;11.662;2023-04-03T00:42:55;6.80;84.30
31379;DHT22;61664;48.112;11.662;2023-04-03T00:45:35;6.90;84.50
31379;DHT22;61664;48.112;11.662;2023-04-03T00:48:06;6.90;84.20
31379;DHT22;61664;48.112;11.662;2023-04-03T00:50:39;6.90;84.50
31379;DHT22;61664;48.112;11.662;2023-04-03T00:53:17;6.90;84.50
31379;DHT22;61664;48.112;11.662;2023-04-03T00:55:49;6.80;84.50
31379;DHT22;61664;48.112;11.662;2023-04-03T00:58:20;6.90;84.70
31379;DHT22;61664;48.112;11.662;2023-04-03T01:00:54;6.90;84.40
31379;DHT22;61664;48.112;11.662;2023-04-03T01:03:24;6.90;84.30
31379;DHT22;61664;48.112;11.662;2023-04-03T01:05:51;6.90;84.70
31379;DHT22;61664;48.112;11.662;2023-04-03T01:08:18;6.90;84.70
31379;DHT22;61664;48.112;11.662;2023-04-03T01:10:45;6.90;84.70
31379;DHT22;61664;48.112;11.662;2023-04-03T01:15:53;6.90;83.60
31379;DHT22;61664;48.112;11.662;2023-04-03T01:18:22;6.90;84.40
31379;DHT22;61664;48.112;11.662;2023-04-03T01:21:36;6.90;84.10
31379;DHT22;61664;48.112;11.662;2023-04-03T01:24:32;6.80;81.30
31379;DHT22;61664;48.112;11.662;2023-04-03T01:27:06;6.80;81.70
31379;DHT22;61664;48.112;11.662;2023-04-03T01:29:36;6.80;84.20
31379;DHT22;61664;48.112;11.662;2023-04-03T01:32:04;6.80;84.60
31379;DHT22;61664;48.112;11.662;2023-04-03T01:34:31;6.80;84.80
31379;DHT22;61664;48.112;11.662;2023-04-03T01:36:58;6.80;84.80
31379;DHT22;61664;48.112;11.662;2023-04-03T01:39:25;6.80;84.80
31379;DHT22;61664;48.112;11.662;2023-04-03T01:41:52;6.80;84.80
31379;DHT22;61664;48.112;11.662;2023-04-03T01:44:19;6.80;85.20
31379;DHT22;61664;48.112;11.662;2023-04-03T01:46:46;6.80;84.70
31379;DHT22;61664;48.112;11.662;2023-04-03T01:49:13;6.80;84.60
31379;DHT22;61664;48.112;11.662;2023-04-03T01:51:40;6.80;84.80
31379;DHT22;61664;48.112;11.662;2023-04-03T01:54:07;6.80;85.10
31379;DHT22;61664;48.112;11.662;2023-04-03T01:56:33;6.80;85.10
31379;DHT22;61664;48.112;11.662;2023-04-03T01:59:00;6.80;85.30
31379;DHT22;61664;48.112;11.662;2023-04-03T02:01:27;6.80;85.20
31379;DHT22;61664;48.112;11.662;2023-04-03T02:03:54;6.80;85.10
31379;DHT22;61664;48.112;11.662;2023-04-03T02:06:21;6.80;85.10
31379;DHT22;61664;48.112;11.662;2023-04-03T02:08:48;6.80;85.10
31379;DHT22;61664;48.112;11.662;2023-04-03T02:11:15;6.80;85.10
31379;DHT22;61664;48.112;11.662;2023-04-03T02:13:42;6.80;85.20
31379;DHT22;61664;48.112;11.662;2023-04-03T02:16:10;6.90;85.30
31379;DHT22;61664;48.112;11.662;2023-04-03T02:18:38;6.90;85.10
31379;DHT22;61664;48.112;11.662;2023-04-03T02:21:05;6.90;85.20
31379;DHT22;61664;48.112;11.662;2023-04-03T02:23:35;6.90;85.10
31379;DHT22;61664;48.112;11.662;2023-04-03T02:26:11;7.00;85.10
31379;DHT22;61664;48.112;11.662;2023-04-03T02:28:40;6.90;84.40
31379;DHT22;61664;48.112;11.662;2023-04-03T02:31:08;6.90;85.10
31379;DHT22;61664;48.112;11.662;2023-04-03T02:33:37;6.90;85.20
31379;DHT22;61664;48.112;11.662;2023-04-03T02:36:05;6.90;85.30
31379;DHT22;61664;48.112;11.662;2023-04-03T02:38:34;6.90;85.00
31379;DHT22;61664;48.112;11.662;2023-04-03T02:41:03;7.00;85.20
31379;DHT22;61664;48.112;11.662;2023-04-03T02:43:32;6.90;84.80
31379;DHT22;61664;48.112;11.662;2023-04-03T02:45:59;7.00;84.90
31379;DHT22;61664;48.112;11.662;2023-04-03T02:48:26;6.90;84.90
31379;DHT22;61664;48.112;11.662;2023-04-03T02:50:53;7.10;84.90
31379;DHT22;61664;48.112;11.662;2023-04-03T02:53:20;6.90;84.80
31379;DHT22;61664;48.112;11.662;2023-04-03T02:55:47;7.00;85.00
31379;DHT22;61664;48.112;11.662;2023-04-03T02:58:15;6.90;84.90
31379;DHT22;61664;48.112;11.662;2023-04-03T03:00:42;7.00;84.90
31379;DHT22;61664;48.112;11.662;2023-04-03T03:03:09;7.00;84.90
31379;DHT22;61664;48.112;11.662;2023-04-03T03:05:35;6.90;84.80
31379;DHT22;61664;48.112;11.662;2023-04-03T03:08:02;7.00;84.90
31379;DHT22;61664;48.112;11.662;2023-04-03T03:10:29;7.00;84.90
31379;DHT22;61664;48.112;11.662;2023-04-03T03:12:56;7.00;84.90
31379;DHT22;61664;48.112;11.662;2023-04-03T03:15:23;7.00;85.00
31379;DHT22;61664;48.112;11.662;2023-04-03T03:17:50;6.90;84.80
31379;DHT22;61664;48.112;11.662;2023-04-03T03:20:17;7.00;84.90
31379;DHT22;61664;48.112;11.662;2023-04-03T03:22:44;7.00;85.00
31379;DHT22;61664;48.112;11.662;2023-04-03T03:25:11;7.00;84.90
31379;DHT22;61664;48.112;11.662;2023-04-03T03:27:38;6.90;85.30
31379;DHT22;61664;48.112;11.662;2023-04-03T03:30:05;7.00;84.90
31379;DHT22;61664;48.112;11.662;2023-04-03T03:32:33;6.90;84.90
31379;DHT22;61664;48.112;11.662;2023-04-03T03:35:00;7.00;85.00
31379;DHT22;61664;48.112;11.662;2023-04-03T03:37:27;7.00;84.90
31379;DHT22;61664;48.112;11.662;2023-04-03T03:39:54;7.00;84.90
31379;DHT22;61664;48.112;11.662;2023-04-03T03:42:21;7.00;85.30
31379;DHT22;61664;48.112;11.662;2023-04-03T03:44:48;7.00;84.60
31379;DHT22;61664;48.112;11.662;2023-04-03T03:47:15;7.00;84.60
31379;DHT22;61664;48.112;11.662;2023-04-03T03:49:42;7.00;84.40
31379;DHT22;61664;48.112;11.662;2023-04-03T03:52:09;6.90;84.40
31379;DHT22;61664;48.112;11.662;2023-04-03T03:54:37;6.90;84.20
31379;DHT22;61664;48.112;11.662;2023-04-03T03:57:04;6.90;84.10
31379;DHT22;61664;48.112;11.662;2023-04-03T03:59:31;6.90;84.20
31379;DHT22;61664;48.112;11.662;2023-04-03T04:01:58;6.90;84.00
31379;DHT22;61664;48.112;11.662;2023-04-03T04:04:25;6.90;84.10
31379;DHT22;61664;48.112;11.662;2023-04-03T04:06:52;6.90;84.30
31379;DHT22;61664;48.112;11.662;2023-04-03T04:09:19;6.90;84.50
31379;DHT22;61664;48.112;11.662;2023-04-03T04:11:46;6.90;84.60
31379;DHT22;61664;48.112;11.662;2023-04-03T04:14:13;6.90;84.60
31379;DHT22;61664;48.112;11.662;2023-04-03T04:16:40;6.90;84.50
31379;DHT22;61664;48.112;11.662;2023-04-03T04:19:07;6.90;84.40
31379;DHT22;61664;48.112;11.662;2023-04-03T04:21:34;6.90;84.40
31379;DHT22;61664;48.112;11.662;2023-04-03T04:24:01;6.80;84.50
31379;DHT22;61664;48.112;11.662;2023-04-03T04:26:29;6.90;84.60
31379;DHT22;61664;48.112;11.662;2023-04-03T04:28:55;6.90;84.60
31379;DHT22;61664;48.112;11.662;2023-04-03T04:31:22;6.80;84.50
31379;DHT22;61664;48.112;11.662;2023-04-03T04:33:49;6.90;84.40
31379;DHT22;61664;48.112;11.662;2023-04-03T04:36:16;6.90;84.30
31379;DHT22;61664;48.112;11.662;2023-04-03T04:38:44;6.90;84.50
31379;DHT22;61664;48.112;11.662;2023-04-03T04:41:11;6.80;84.50
31379;DHT22;61664;48.112;11.662;2023-04-03T04:43:38;6.80;84.50
31379;DHT22;61664;48.112;11.662;2023-04-03T04:46:09;6.80;84.50
31379;DHT22;61664;48.112;11.662;2023-04-03T04:48:38;6.80;84.30
31379;DHT22;61664;48.112;11.662;2023-04-03T04:51:06;6.90;84.50
31379;DHT22;61664;48.112;11.662;2023-04-03T04:53:33;6.80;84.40
31379;DHT22;61664;48.112;11.662;2023-04-03T04:56:01;6.80;84.50
31379;DHT22;61664;48.112;11.662;2023-04-03T04:58:28;6.80;84.30
31379;DHT22;61664;48.112;11.662;2023-04-03T05:01:04;6.80;84.40
31379;DHT22;61664;48.112;11.662;2023-04-03T05:03:33;6.80;83.20
31379;DHT22;61664;48.112;11.662;2023-04-03T05:06:00;6.80;84.60
31379;DHT22;61664;48.112;11.662;2023-04-03T05:08:27;6.80;84.40
31379;DHT22;61664;48.112;11.662;2023-04-03T05:10:54;6.90;84.40
31379;DHT22;61664;48.112;11.662;2023-04-03T05:13:22;6.90;84.30
31379;DHT22;61664;48.112;11.662;2023-04-03T05:15:48;6.80;84.30
31379;DHT22;61664;48.112;11.662;2023-04-03T05:18:16;6.80;84.30
31379;DHT22;61664;48.112;11.662;2023-04-03T05:20:43;6.80;84.30
31379;DHT22;61664;48.112;11.662;2023-04-03T05:23:10;6.80;84.10
31379;DHT22;61664;48.112;11.662;2023-04-03T05:25:38;6.80;84.00
31379;DHT22;61664;48.112;11.662;2023-04-03T05:28:06;6.80;83.90
31379;DHT22;61664;48.112;11.662;2023-04-03T05:30:34;6.80;84.00
31379;DHT22;61664;48.112;11.662;2023-04-03T05:33:01;6.70;84.10
31379;DHT22;61664;48.112;11.662;2023-04-03T05:35:29;6.80;84.20
31379;DHT22;61664;48.112;11.662;2023-04-03T05:37:56;6.80;84.40
31379;DHT22;61664;48.112;11.662;2023-04-03T05:40:23;6.70;84.40
31379;DHT22;61664;48.112;11.662;2023-04-03T05:42:50;6.80;84.50
31379;DHT22;61664;48.112;11.662;2023-04-03T05:45:17;6.80;84.60
31379;DHT22;61664;48.112;11.662;2023-04-03T05:47:43;6.70;84.70
31379;DHT22;61664;48.112;11.662;2023-04-03T05:50:11;6.80;84.80
31379;DHT22;61664;48.112;11.662;2023-04-03T05:52:41;6.80;84.90
31379;DHT22;61664;48.112;11.662;2023-04-03T05:55:10;6.80;84.70
31379;DHT22;61664;48.112;11.662;2023-04-03T05:57:37;6.80;84.80
31379;DHT22;61664;48.112;11.662;2023-04-03T06:00:06;6.80;84.80
31379;DHT22;61664;48.112;11.662;2023-04-03T06:02:35;6.90;84.90
31379;DHT22;61664;48.112;11.662;2023-04-03T06:05:03;6.90;85.00
31379;DHT22;61664;48.112;11.662;2023-04-03T06:07:30;6.90;84.80
31379;DHT22;61664;48.112;11.662;2023-04-03T06:09:57;6.90;84.80
31379;DHT22;61664;48.112;11.662;2023-04-03T06:12:24;7.00;85.00
31379;DHT22;61664;48.112;11.662;2023-04-03T06:14:51;6.90;85.10
31379;DHT22;61664;48.112;11.662;2023-04-03T06:17:18;6.90;85.00
31379;DHT22;61664;48.112;11.662;2023-04-03T06:19:46;7.10;85.00
31379;DHT22;61664;48.112;11.662;2023-04-03T06:22:13;7.00;84.70
31379;DHT22;61664;48.112;11.662;2023-04-03T06:24:40;7.00;84.90
31379;DHT22;61664;48.112;11.662;2023-04-03T06:27:07;7.00;84.70
31379;DHT22;61664;48.112;11.662;2023-04-03T06:29:36;7.00;84.80
31379;DHT22;61664;48.112;11.662;2023-04-03T06:32:03;7.10;85.00
31379;DHT22;61664;48.112;11.662;2023-04-03T06:34:30;7.10;85.10
31379;DHT22;61664;48.112;11.662;2023-04-03T06:36:57;7.10;85.50
31379;DHT22;61664;48.112;11.662;2023-04-03T06:39:24;7.20;85.50
31379;DHT22;61664;48.112;11.662;2023-04-03T06:41:51;7.20;85.30
31379;DHT22;61664;48.112;11.662;2023-04-03T06:44:18;7.20;85.30
31379;DHT22;61664;48.112;11.662;2023-04-03T06:46:45;7.20;85.30
31379;DHT22;61664;48.112;11.662;2023-04-03T06:49:13;7.30;85.40
31379;DHT22;61664;48.112;11.662;2023-04-03T06:51:40;7.30;85.50
31379;DHT22;61664;48.112;11.662;2023-04-03T06:54:07;7.40;85.60
31379;DHT22;61664;48.112;11.662;2023-04-03T06:56:35;7.40;85.50
31379;DHT22;61664;48.112;11.662;2023-04-03T06:59:02;7.40;85.40
31379;DHT22;61664;48.112;11.662;2023-04-03T07:01:30;7.60;85.50
31379;DHT22;61664;48.112;11.662;2023-04-03T07:03:57;7.50;85.60
31379;DHT22;61664;48.112;11.662;2023-04-03T07:06:25;7.60;85.70
31379;DHT22;61664;48.112;11.662;2023-04-03T07:08:55;7.60;85.80
31379;DHT22;61664;48.112;11.662;2023-04-03T07:11:22;7.70;85.60
31379;DHT22;61664;48.112;11.662;2023-04-03T07:13:50;7.70;85.40
31379;DHT22;61664;48.112;11.662;2023-04-03T07:16:17;7.70;85.10
31379;DHT22;61664;48.112;11.662;2023-04-03T07:18:45;7.70;85.30
31379;DHT22;61664;48.112;11.662;2023-04-03T07:21:12;7.80;85.90
31379;DHT22;61664;48.112;11.662;2023-04-03T07:23:39;7.80;85.40
31379;DHT22;61664;48.112;11.662;2023-04-03T07:26:07;7.90;85.70
31379;DHT22;61664;48.112;11.662;2023-04-03T07:28:34;7.90;85.70
31379;DHT22;61664;48.112;11.662;2023-04-03T07:31:10;7.90;85.40
31379;DHT22;61664;48.112;11.662;2023-04-03T07:33:40;8.00;85.20
31379;DHT22;61664;48.112;11.662;2023-04-03T07:36:08;8.00;85.30
31379;DHT22;61664;48.112;11.662;2023-04-03T07:38:37;8.10;85.10
31379;DHT22;61664;48.112;11.662;2023-04-03T07:41:04;8.10;85.00
31379;DHT22;61664;48.112;11.662;2023-04-03T07:43:32;8.10;84.80
31379;DHT22;61664;48.112;11.662;2023-04-03T07:46:00;8.20;84.70
31379;DHT22;61664;48.112;11.662;2023-04-03T07:48:27;8.20;84.90
31379;DHT22;61664;48.112;11.662;2023-04-03T07:50:59;8.20;84.60
31379;DHT22;61664;48.112;11.662;2023-04-03T07:53:27;8.20;82.90
31379;DHT22;61664;48.112;11.662;2023-04-03T07:55:56;8.30;84.30
31379;DHT22;61664;48.112;11.662;2023-04-03T07:58:24;8.20;83.80
31379;DHT22;61664;48.112;11.662;2023-04-03T08:00:52;8.20;84.10
31379;DHT22;61664;48.112;11.662;2023-04-03T08:03:19;8.30;83.90
31379;DHT22;61664;48.112;11.662;2023-04-03T08:05:48;8.20;83.50
31379;DHT22;61664;48.112;11.662;2023-04-03T08:08:18;8.20;83.10
31379;DHT22;61664;48.112;11.662;2023-04-03T08:10:51;8.20;83.00
31379;DHT22;61664;48.112;11.662;2023-04-03T08:13:21;8.20;82.20
31379;DHT22;61664;48.112;11.662;2023-04-03T08:15:49;8.10;83.00
31379;DHT22;61664;48.112;11.662;2023-04-03T08:18:16;8.10;83.10
31379;DHT22;61664;48.112;11.662;2023-04-03T08:20:43;8.10;83.00
31379;DHT22;61664;48.112;11.662;2023-04-03T08:23:11;8.10;83.20
31379;DHT22;61664;48.112;11.662;2023-04-03T08:25:42;8.10;84.00
31379;DHT22;61664;48.112;11.662;2023-04-03T08:28:10;8.10;83.30
31379;DHT22;61664;48.112;11.662;2023-04-03T08:30:41;8.10;84.40
31379;DHT22;61664;48.112;11.662;2023-04-03T08:33:09;8.10;83.40
31379;DHT22;61664;48.112;11.662;2023-04-03T08:35:40;8.10;84.30
31379;DHT22;61664;48.112;11.662;2023-04-03T08:38:09;8.20;83.50
31379;DHT22;61664;48.112;11.662;2023-04-03T08:40:36;8.30;84.90
31379;DHT22;61664;48.112;11.662;2023-04-03T08:43:46;8.30;85.10
31379;DHT22;61664;48.112;11.662;2023-04-03T08:46:14;8.30;82.90
31379;DHT22;61664;48.112;11.662;2023-04-03T08:48:45;8.40;85.10
31379;DHT22;61664;48.112;11.662;2023-04-03T08:51:19;8.50;85.40
31379;DHT22;61664;48.112;11.662;2023-04-03T08:54:00;8.60;83.30
31379;DHT22;61664;48.112;11.662;2023-04-03T08:56:47;8.60;82.40
31379;DHT22;61664;48.112;11.662;2023-04-03T08:59:21;8.70;85.40
31379;DHT22;61664;48.112;11.662;2023-04-03T09:01:55;8.80;83.60
31379;DHT22;61664;48.112;11.662;2023-04-03T09:04:26;8.90;85.10
31379;DHT22;61664;48.112;11.662;2023-04-03T09:06:57;8.90;84.90
31379;DHT22;61664;48.112;11.662;2023-04-03T09:09:35;9.00;85.10
31379;DHT22;61664;48.112;11.662;2023-04-03T09:12:27;9.10;83.70
31379;DHT22;61664;48.112;11.662;2023-04-03T09:15:19;9.10;82.00
31379;DHT22;61664;48.112;11.662;2023-04-03T09:20:53;9.30;85.80
31379;DHT22;61664;48.112;11.662;2023-04-03T09:23:51;9.40;85.80
31379;DHT22;61664;48.112;11.662;2023-04-03T09:26:27;9.50;79.10
31379;DHT22;61664;48.112;11.662;2023-04-03T09:28:59;9.60;83.20
31379;DHT22;61664;48.112;11.662;2023-04-03T09:34:14;9.80;81.60
31379;DHT22;61664;48.112;11.662;2023-04-03T09:36:51;9.70;82.50
31379;DHT22;61664;48.112;11.662;2023-04-03T09:39:25;9.70;82.70
31379;DHT22;61664;48.112;11.662;2023-04-03T09:44:36;9.70;80.70
31379;DHT22;61664;48.112;11.662;2023-04-03T09:47:27;9.60;82.20
31379;DHT22;61664;48.112;11.662;2023-04-03T09:50:19;9.60;76.50
31379;DHT22;61664;48.112;11.662;2023-04-03T09:52:48;9.60;78.00
31379;DHT22;61664;48.112;11.662;2023-04-03T09:55:20;9.60;76.30
31379;DHT22;61664;48.112;11.662;2023-04-03T09:57:58;9.60;82.60
31379;DHT22;61664;48.112;11.662;2023-04-03T10:03:04;9.50;80.10
31379;DHT22;61664;48.112;11.662;2023-04-03T10:05:48;9.50;83.10
31379;DHT22;61664;48.112;11.662;2023-04-03T10:08:23;9.40;83.00
31379;DHT22;61664;48.112;11.662;2023-04-03T10:11:17;9.40;82.50
31379;DHT22;61664;48.112;11.662;2023-04-03T10:13:58;9.50;77.10
31379;DHT22;61664;48.112;11.662;2023-04-03T10:19:35;9.50;81.80
31379;DHT22;61664;48.112;11.662;2023-04-03T10:25:30;9.50;81.80
31379;DHT22;61664;48.112;11.662;2023-04-03T10:33:59;9.70;79.60
31379;DHT22;61664;48.112;11.662;2023-04-03T10:49:12;9.90;78.90
31379;DHT22;61664;48.112;11.662;2023-04-03T10:52:35;9.80;81.20
31379;DHT22;61664;48.112;11.662;2023-04-03T10:57:40;9.60;76.00
31379;DHT22;61664;48.112;11.662;2023-04-03T11:00:16;9.60;75.80
31379;DHT22;61664;48.112;11.662;2023-04-03T11:02:58;9.50;78.40
31379;DHT22;61664;48.112;11.662;2023-04-03T11:05:47;9.40;80.00
31379;DHT22;61664;48.112;11.662;2023-04-03T11:10:57;9.30;79.40
31379;DHT22;61664;48.112;11.662;2023-04-03T11:13:40;9.20;81.20
31379;DHT22;61664;48.112;11.662;2023-04-03T11:16:18;9.20;80.00
31379;DHT22;61664;48.112;11.662;2023-04-03T11:19:12;9.10;79.60
31379;DHT22;61664;48.112;11.662;2023-04-03T11:21:56;9.10;75.30
31379;DHT22;61664;48.112;11.662;2023-04-03T11:24:29;9.10;79.40
31379;DHT22;61664;48.112;11.662;2023-04-03T11:27:01;9.00;81.40
31379;DHT22;61664;48.112;11.662;2023-04-03T11:29:35;9.00;81.60
31379;DHT22;61664;48.112;11.662;2023-04-03T11:34:55;8.90;81.00
31379;DHT22;61664;48.112;11.662;2023-04-03T11:37:35;8.90;81.20
31379;DHT22;61664;48.112;11.662;2023-04-03T11:43:18;8.90;81.90
31379;DHT22;61664;48.112;11.662;2023-04-03T11:50:56;8.90;81.40
31379;DHT22;61664;48.112;11.662;2023-04-03T11:53:33;8.90;82.30
31379;DHT22;61664;48.112;11.662;2023-04-03T12:01:55;8.90;75.70
31379;DHT22;61664;48.112;11.662;2023-04-03T12:04:25;8.90;79.40
31379;DHT22;61664;48.112;11.662;2023-04-03T12:07:17;9.10;83.20
31379;DHT22;61664;48.112;11.662;2023-04-03T12:12:57;9.10;83.60
31379;DHT22;61664;48.112;11.662;2023-04-03T12:27:28;9.30;79.90
31379;DHT22;61664;48.112;11.662;2023-04-03T12:30:00;9.40;75.30
31379;DHT22;61664;48.112;11.662;2023-04-03T12:32:46;9.40;79.00
31379;DHT22;61664;48.112;11.662;2023-04-03T12:38:52;9.60;76.70
31379;DHT22;61664;48.112;11.662;2023-04-03T12:47:42;9.90;77.10
31379;DHT22;61664;48.112;11.662;2023-04-03T12:50:33;10.10;77.40
31379;DHT22;61664;48.112;11.662;2023-04-03T12:53:07;10.30;85.10
31379;DHT22;61664;48.112;11.662;2023-04-03T12:55:57;10.40;84.70
31379;DHT22;61664;48.112;11.662;2023-04-03T12:58:45;10.70;85.50
31379;DHT22;61664;48.112;11.662;2023-04-03T13:01:15;10.80;85.60
31379;DHT22;61664;48.112;11.662;2023-04-03T13:03:47;10.90;83.70
31379;DHT22;61664;48.112;11.662;2023-04-03T13:06:28;11.00;84.40
31379;DHT22;61664;48.112;11.662;2023-04-03T13:09:01;11.10;77.90
31379;DHT22;61664;48.112;11.662;2023-04-03T13:11:35;11.20;84.80
31379;DHT22;61664;48.112;11.662;2023-04-03T13:14:26;11.30;82.60
31379;DHT22;61664;48.112;11.662;2023-04-03T13:16:58;11.50;76.50
31379;DHT22;61664;48.112;11.662;2023-04-03T13:19:46;11.60;86.20
31379;DHT22;61664;48.112;11.662;2023-04-03T13:25:08;12.00;75.00
31379;DHT22;61664;48.112;11.662;2023-04-03T13:27:39;12.00;83.80
31379;DHT22;61664;48.112;11.662;2023-04-03T13:30:39;12.20;85.60
31379;DHT22;61664;48.112;11.662;2023-04-03T13:33:26;12.30;74.00
31379;DHT22;61664;48.112;11.662;2023-04-03T13:36:08;12.60;75.50
31379;DHT22;61664;48.112;11.662;2023-04-03T13:38:44;12.60;85.20
31379;DHT22;61664;48.112;11.662;2023-04-03T13:42:03;12.90;88.80
31379;DHT22;61664;48.112;11.662;2023-04-03T13:44:43;13.20;75.90
31379;DHT22;61664;48.112;11.662;2023-04-03T13:47:15;13.60;86.10
31379;DHT22;61664;48.112;11.662;2023-04-03T13:50:31;13.70;83.60
31379;DHT22;61664;48.112;11.662;2023-04-03T13:52:48;13.70;79.80
31379;DHT22;61664;48.112;11.662;2023-04-03T13:55:57;13.70;72.40
31379;DHT22;61664;48.112;11.662;2023-04-03T13:58:32;13.60;67.00
31379;DHT22;61664;48.112;11.662;2023-04-03T14:01:08;13.40;75.30
31379;DHT22;61664;48.112;11.662;2023-04-03T14:04:00;13.10;70.20
31379;DHT22;61664;48.112;11.662;2023-04-03T14:06:37;12.90;66.90
31379;DHT22;61664;48.112;11.662;2023-04-03T14:09:04;12.70;75.00
31379;DHT22;61664;48.112;11.662;2023-04-03T14:11:31;12.50;75.40
31379;DHT22;61664;48.112;11.662;2023-04-03T14:14:03;12.30;75.30
31379;DHT22;61664;48.112;11.662;2023-04-03T14:16:41;12.20;74.90
31379;DHT22;61664;48.112;11.662;2023-04-03T14:19:18;12.00;75.00
31379;DHT22;61664;48.112;11.662;2023-04-03T14:21:49;11.90;72.60
31379;DHT22;61664;48.112;11.662;2023-04-03T14:24:17;11.80;77.60
31379;DHT22;61664;48.112;11.662;2023-04-03T14:26:46;11.70;78.00
31379;DHT22;61664;48.112;11.662;2023-04-03T14:29:13;11.60;78.10
31379;DHT22;61664;48.112;11.662;2023-04-03T14:31:42;11.60;78.60
31379;DHT22;61664;48.112;11.662;2023-04-03T14:34:12;11.60;79.70
31379;DHT22;61664;48.112;11.662;2023-04-03T14:36:40;11.70;80.70
31379;DHT22;61664;48.112;11.662;2023-04-03T14:39:17;11.70;81.70
31379;DHT22;61664;48.112;11.662;2023-04-03T14:41:45;11.80;76.70
31379;DHT22;61664;48.112;11.662;2023-04-03T14:44:13;12.00;85.90
31379;DHT22;61664;48.112;11.662;2023-04-03T14:46:42;12.30;89.10
31379;DHT22;61664;48.112;11.662;2023-04-03T14:49:25;12.70;87.50
31379;DHT22;61664;48.112;11.662;2023-04-03T14:51:58;13.00;86.80
31379;DHT22;61664;48.112;11.662;2023-04-03T14:54:26;13.40;84.30
31379;DHT22;61664;48.112;11.662;2023-04-03T14:56:55;13.70;85.20
31379;DHT22;61664;48.112;11.662;2023-04-03T14:59:25;13.80;83.00
31379;DHT22;61664;48.112;11.662;2023-04-03T15:01:53;13.90;82.10
31379;DHT22;61664;48.112;11.662;2023-04-03T15:04:20;14.00;81.30
31379;DHT22;61664;48.112;11.662;2023-04-03T15:06:48;14.10;82.50
31379;DHT22;61664;48.112;11.662;2023-04-03T15:09:26;14.30;86.30
31379;DHT22;61664;48.112;11.662;2023-04-03T15:11:54;14.80;84.70
31379;DHT22;61664;48.112;11.662;2023-04-03T15:14:22;15.30;92.00
31379;DHT22;61664;48.112;11.662;2023-04-03T15:17:06;15.90;90.30
31379;DHT22;61664;48.112;11.662;2023-04-03T15:19:37;16.20;84.20
31379;DHT22;61664;48.112;11.662;2023-04-03T15:22:05;16.40;77.80
31379;DHT22;61664;48.112;11.662;2023-04-03T15:24:31;16.30;75.20
31379;DHT22;61664;48.112;11.662;2023-04-03T15:27:00;16.10;73.80
31379;DHT22;61664;48.112;11.662;2023-04-03T15:29:27;15.90;72.80
31379;DHT22;61664;48.112;11.662;2023-04-03T15:31:54;15.80;79.80
31379;DHT22;61664;48.112;11.662;2023-04-03T15:34:22;15.90;86.00
31379;DHT22;61664;48.112;11.662;2023-04-03T15:36:49;16.20;90.20
31379;DHT22;61664;48.112;11.662;2023-04-03T15:39:20;16.70;91.40
31379;DHT22;61664;48.112;11.662;2023-04-03T15:41:47;17.30;91.70
31379;DHT22;61664;48.112;11.662;2023-04-03T15:44:14;17.90;91.80
31379;DHT22;61664;48.112;11.662;2023-04-03T15:46:48;18.60;91.30
31379;DHT22;61664;48.112;11.662;2023-04-03T15:49:19;19.30;84.90
31379;DHT22;61664;48.112;11.662;2023-04-03T15:51:47;19.80;86.70
31379;DHT22;61664;48.112;11.662;2023-04-03T15:54:15;20.20;82.80
31379;DHT22;61664;48.112;11.662;2023-04-03T15:56:43;20.50;78.90
31379;DHT22;61664;48.112;11.662;2023-04-03T15:59:10;20.50;74.50
31379;DHT22;61664;48.112;11.662;2023-04-03T16:01:38;20.50;74.00
31379;DHT22;61664;48.112;11.662;2023-04-03T16:04:07;20.50;73.70
31379;DHT22;61664;48.112;11.662;2023-04-03T16:06:35;20.50;72.10
31379;DHT22;61664;48.112;11.662;2023-04-03T16:09:04;20.50;72.10
31379;DHT22;61664;48.112;11.662;2023-04-03T16:11:31;20.40;69.80
31379;DHT22;61664;48.112;11.662;2023-04-03T16:13:58;20.20;66.80
31379;DHT22;61664;48.112;11.662;2023-04-03T16:16:25;19.90;65.40
31379;DHT22;61664;48.112;11.662;2023-04-03T16:18:55;19.60;67.50
31379;DHT22;61664;48.112;11.662;2023-04-03T16:21:22;19.30;67.70
31379;DHT22;61664;48.112;11.662;2023-04-03T16:23:50;19.10;67.30
31379;DHT22;61664;48.112;11.662;2023-04-03T16:26:17;18.90;66.00
31379;DHT22;61664;48.112;11.662;2023-04-03T16:28:44;18.50;64.90
31379;DHT22;61664;48.112;11.662;2023-04-03T16:31:12;18.10;64.60
31379;DHT22;61664;48.112;11.662;2023-04-03T16:33:39;17.70;64.40
31379;DHT22;61664;48.112;11.662;2023-04-03T16:36:06;17.20;64.30
31379;DHT22;61664;48.112;11.662;2023-04-03T16:38:33;16.80;64.20
31379;DHT22;61664;48.112;11.662;2023-04-03T16:41:00;16.30;64.70
31379;DHT22;61664;48.112;11.662;2023-04-03T16:43:34;15.90;65.10
31379;DHT22;61664;48.112;11.662;2023-04-03T16:46:02;15.40;62.50
31379;DHT22;61664;48.112;11.662;2023-04-03T16:48:30;15.00;65.30
31379;DHT22;61664;48.112;11.662;2023-04-03T16:50:58;14.60;65.50
31379;DHT22;61664;48.112;11.662;2023-04-03T16:53:26;14.20;65.60
31379;DHT22;61664;48.112;11.662;2023-04-03T16:55:54;13.80;66.10
31379;DHT22;61664;48.112;11.662;2023-04-03T16:58:21;13.40;66.90
31379;DHT22;61664;48.112;11.662;2023-04-03T17:00:50;13.10;68.20
31379;DHT22;61664;48.112;11.662;2023-04-03T17:03:17;12.80;71.70
31379;DHT22;61664;48.112;11.662;2023-04-03T17:05:47;12.70;74.10
31379;DHT22;61664;48.112;11.662;2023-04-03T17:08:16;12.80;71.90
31379;DHT22;61664;48.112;11.662;2023-04-03T17:10:44;12.60;71.50
31379;DHT22;61664;48.112;11.662;2023-04-03T17:13:11;12.60;71.60
31379;DHT22;61664;48.112;11.662;2023-04-03T17:15:38;12.40;70.30
31379;DHT22;61664;48.112;11.662;2023-04-03T17:18:06;12.20;69.90
31379;DHT22;61664;48.112;11.662;2023-04-03T17:20:34;11.90;69.20